createdAt,value
2023-04-23T00:00:54.653Z,19.73
2023-04-23T00:03:39.493Z,19.91
2023-04-23T00:06:08.266Z,19.80
2023-04-23T00:08:36.136Z,19.89
2023-04-23T00:11:04.197Z,19.73
2023-04-23T00:13:32.124Z,19.72
2023-04-23T00:16:00.601Z,19.69
2023-04-23T00:18:29.895Z,19.59
2023-04-23T00:20:57.964Z,19.70
2023-04-23T00:23:25.807Z,19.66
2023-04-23T00:25:54.155Z,19.67
2023-04-23T00:28:22.355Z,19.88
2023-04-23T00:30:50.619Z,19.79
2023-04-23T00:33:18.426Z,19.78
2023-04-23T00:35:46.637Z,19.80
2023-04-23T00:38:14.395Z,19.61
2023-04-23T00:40:42.775Z,19.69
2023-04-23T00:43:11.817Z,19.67
2023-04-23T00:45:40.381Z,19.52
2023-04-23T00:48:08.530Z,19.51
2023-04-23T00:50:37.475Z,19.62
2023-04-23T00:53:05.165Z,19.74
2023-04-23T00:55:33.305Z,19.55
2023-04-23T00:58:01.248Z,19.34
2023-04-23T01:00:29.705Z,19.34
2023-04-23T01:02:58.523Z,19.28
2023-04-23T01:05:27.188Z,19.25
2023-04-23T01:07:55.285Z,19.18
2023-04-23T01:10:23.707Z,19.43
2023-04-23T01:12:51.858Z,19.30
2023-04-23T01:15:20.288Z,19.39
2023-04-23T01:17:48.196Z,19.25
2023-04-23T01:20:16.728Z,19.28
2023-04-23T01:22:44.391Z,19.18
2023-04-23T01:25:12.433Z,19.01
2023-04-23T01:27:41.173Z,19.14
2023-04-23T01:30:09.522Z,19.01
2023-04-23T01:32:37.581Z,19.09
2023-04-23T01:35:06.633Z,19.21
2023-04-23T01:37:35.155Z,19.00
2023-04-23T01:40:03.372Z,19.00
2023-04-23T01:42:31.039Z,19.01
2023-04-23T01:44:59.107Z,18.93
2023-04-23T01:47:26.853Z,18.90
2023-04-23T01:49:55.421Z,18.88
2023-04-23T01:52:23.148Z,18.89
2023-04-23T01:54:51.852Z,18.79
2023-04-23T01:57:24.671Z,18.95
2023-04-23T01:59:55.023Z,19.01
2023-04-23T02:02:22.830Z,18.95
2023-04-23T02:04:53.604Z,19.04
2023-04-23T02:07:21.494Z,18.95
2023-04-23T02:09:49.666Z,18.83
2023-04-23T02:12:17.296Z,18.79
2023-04-23T02:14:45.357Z,18.76
2023-04-23T02:17:13.028Z,18.81
2023-04-23T02:19:40.984Z,19.01
2023-04-23T02:22:09.762Z,18.86
2023-04-23T02:24:39.330Z,18.95
2023-04-23T02:27:07.214Z,18.89
2023-04-23T02:29:35.280Z,18.92
2023-04-23T02:32:06.346Z,18.72
2023-04-23T02:34:34.415Z,18.65
2023-04-23T02:37:02.188Z,18.71
2023-04-23T02:39:31.786Z,18.73
2023-04-23T02:41:59.948Z,18.70
2023-04-23T02:44:28.040Z,18.75
2023-04-23T02:46:56.458Z,18.74
2023-04-23T02:49:24.769Z,18.78
2023-04-23T02:51:52.405Z,18.85
2023-04-23T02:54:20.726Z,18.67
2023-04-23T02:56:48.673Z,18.76
2023-04-23T02:59:17.122Z,18.64
2023-04-23T03:01:44.881Z,18.56
2023-04-23T03:04:14.048Z,18.59
2023-04-23T03:06:42.182Z,18.49
2023-04-23T03:09:11.190Z,18.57
2023-04-23T03:11:38.895Z,18.54
2023-04-23T03:14:07.434Z,18.48
2023-04-23T03:16:36.042Z,18.62
2023-04-23T03:19:04.057Z,18.57
2023-04-23T03:21:31.786Z,18.41
2023-04-23T03:23:59.825Z,18.38
2023-04-23T03:26:27.510Z,18.40
2023-04-23T03:28:55.527Z,18.47
2023-04-23T03:31:23.531Z,18.43
2023-04-23T03:33:51.754Z,18.32
2023-04-23T03:36:25.925Z,18.28
2023-04-23T03:38:54.193Z,18.29
2023-04-23T03:41:22.426Z,18.39
2023-04-23T03:43:51.430Z,18.28
2023-04-23T03:46:39.100Z,18.35
2023-04-23T03:49:07.613Z,18.32
2023-04-23T03:51:35.404Z,18.41
2023-04-23T03:54:03.589Z,18.28
2023-04-23T03:56:43.219Z,18.11
2023-04-23T03:59:16.600Z,18.13
2023-04-23T04:01:45.969Z,18.22
2023-04-23T04:04:14.098Z,18.19
2023-04-23T04:06:41.989Z,18.30
2023-04-23T04:09:10.226Z,18.35
2023-04-23T04:11:37.993Z,18.47
2023-04-23T04:14:06.339Z,18.48
2023-04-23T04:16:34.197Z,18.35
2023-04-23T04:19:02.300Z,18.33
2023-04-23T04:21:30.321Z,17.96
2023-04-23T04:23:58.629Z,17.78
2023-04-23T04:26:26.338Z,17.57
2023-04-23T04:28:54.479Z,17.70
2023-04-23T04:31:22.354Z,17.85
2023-04-23T04:33:51.019Z,17.46
2023-04-23T04:36:18.931Z,17.39
2023-04-23T04:38:47.078Z,17.52
2023-04-23T04:41:15.682Z,17.50
2023-04-23T04:43:44.044Z,17.49
2023-04-23T04:46:14.338Z,17.75
2023-04-23T04:48:42.395Z,17.87
2023-04-23T04:51:10.299Z,17.88
2023-04-23T04:53:38.329Z,18.12
2023-04-23T04:56:06.170Z,18.26
2023-04-23T04:58:34.668Z,18.17
2023-04-23T05:01:02.638Z,18.39
2023-04-23T05:03:31.134Z,18.28
2023-04-23T05:05:59.147Z,18.45
2023-04-23T05:08:27.524Z,18.57
2023-04-23T05:10:55.236Z,18.63
2023-04-23T05:13:23.274Z,18.79
2023-04-23T05:15:50.928Z,18.80
2023-04-23T05:18:19.274Z,18.72
2023-04-23T05:20:47.171Z,18.79
2023-04-23T05:23:15.183Z,18.57
2023-04-23T05:25:42.844Z,18.62
2023-04-23T05:28:10.837Z,18.50
2023-04-23T05:30:38.688Z,18.52
2023-04-23T05:33:06.794Z,18.96
2023-04-23T05:35:34.528Z,19.02
2023-04-23T05:38:02.991Z,19.50
2023-04-23T05:40:30.764Z,19.77
2023-04-23T05:42:58.889Z,19.72
2023-04-23T05:45:26.661Z,19.80
2023-04-23T05:47:54.761Z,20.10
2023-04-23T05:50:22.621Z,20.05
2023-04-23T05:52:50.854Z,19.71
2023-04-23T05:55:20.613Z,19.79
2023-04-23T05:57:48.667Z,19.82
2023-04-23T06:00:17.276Z,20.30
2023-04-23T06:02:45.317Z,19.97
2023-04-23T06:05:13.437Z,19.88
2023-04-23T06:07:42.198Z,20.20
2023-04-23T06:10:10.035Z,19.79
2023-04-23T06:12:39.466Z,19.82
2023-04-23T06:15:07.959Z,19.73
2023-04-23T06:17:36.432Z,19.82
2023-04-23T06:20:05.358Z,20.37
2023-04-23T06:22:33.547Z,20.29
2023-04-23T06:25:03.340Z,20.50
2023-04-23T06:27:32.838Z,20.55
2023-04-23T06:30:06.347Z,20.19
2023-04-23T06:32:34.598Z,19.73
2023-04-23T06:35:02.590Z,19.30
2023-04-23T06:37:33.478Z,19.07
2023-04-23T06:40:01.289Z,19.26
2023-04-23T06:42:29.410Z,19.07
2023-04-23T06:45:20.554Z,19.49
2023-04-23T06:47:50.009Z,19.73
2023-04-23T06:50:17.776Z,19.67
2023-04-23T06:52:46.192Z,19.83
2023-04-23T06:55:13.869Z,19.66
2023-04-23T06:57:41.841Z,19.86
2023-04-23T07:00:11.217Z,20.18
2023-04-23T07:02:42.457Z,20.01
2023-04-23T07:05:10.712Z,20.87
2023-04-23T07:07:38.902Z,21.25
2023-04-23T07:10:07.279Z,20.66
2023-04-23T07:12:35.479Z,20.44
2023-04-23T07:15:03.332Z,19.95
2023-04-23T07:17:31.508Z,19.89
2023-04-23T07:19:59.258Z,20.44
2023-04-23T07:22:28.795Z,20.73
2023-04-23T07:24:57.825Z,20.73
2023-04-23T07:27:26.158Z,20.48
2023-04-23T07:29:53.943Z,20.52
2023-04-23T07:32:23.887Z,20.80
2023-04-23T07:34:51.881Z,20.71
2023-04-23T07:37:22.084Z,21.04
2023-04-23T07:39:49.819Z,20.89
2023-04-23T07:42:18.213Z,21.10
2023-04-23T07:44:46.029Z,21.33
2023-04-23T07:47:14.140Z,21.13
2023-04-23T07:49:42.093Z,21.03
2023-04-23T07:52:10.364Z,21.65
2023-04-23T07:54:38.010Z,22.27
2023-04-23T07:57:06.372Z,22.31
2023-04-23T07:59:33.987Z,21.46
2023-04-23T08:02:02.106Z,21.86
2023-04-23T08:04:29.982Z,22.49
2023-04-23T08:06:59.060Z,22.79
2023-04-23T08:09:27.213Z,23.04
2023-04-23T08:11:55.620Z,22.90
2023-04-23T08:14:23.674Z,23.09
2023-04-23T08:16:51.429Z,23.04
2023-04-23T08:19:19.451Z,23.02
2023-04-23T08:21:47.395Z,23.40
2023-04-23T08:24:15.378Z,23.66
2023-04-23T08:26:43.127Z,23.40
2023-04-23T08:29:11.698Z,23.80
2023-04-23T08:31:40.045Z,23.54
2023-04-23T08:34:08.231Z,23.35
2023-04-23T08:36:36.218Z,23.17
2023-04-23T08:39:05.188Z,23.40
2023-04-23T08:41:40.231Z,23.08
2023-04-23T08:44:13.367Z,23.85
2023-04-23T08:46:43.668Z,23.44
2023-04-23T08:49:19.552Z,23.97
2023-04-23T08:51:50.009Z,23.24
2023-04-23T08:54:27.662Z,23.32
2023-04-23T08:56:57.655Z,24.06
2023-04-23T08:59:30.643Z,23.65
2023-04-23T09:02:00.197Z,23.81
2023-04-23T09:04:29.202Z,23.56
2023-04-23T09:06:57.249Z,23.91
2023-04-23T09:09:28.390Z,23.27
2023-04-23T09:11:57.216Z,23.20
2023-04-23T09:14:25.877Z,23.77
2023-04-23T09:16:54.252Z,24.39
2023-04-23T09:19:23.152Z,24.66
2023-04-23T09:21:51.562Z,24.42
2023-04-23T09:24:22.125Z,23.81
2023-04-23T09:26:51.248Z,23.24
2023-04-23T09:29:21.777Z,23.53
2023-04-23T09:31:51.636Z,23.52
2023-04-23T09:34:20.567Z,24.05
2023-04-23T09:36:52.251Z,25.16
2023-04-23T09:39:22.975Z,25.50
2023-04-23T09:41:54.307Z,24.93
2023-04-23T09:44:22.970Z,23.83
2023-04-23T09:46:51.202Z,24.81
2023-04-23T09:49:20.188Z,24.48
2023-04-23T09:51:48.976Z,24.15
2023-04-23T09:54:18.943Z,24.74
2023-04-23T09:56:50.100Z,24.57
2023-04-23T09:59:26.745Z,23.74
2023-04-23T10:02:05.650Z,24.47
2023-04-23T10:04:34.729Z,25.60
2023-04-23T10:07:17.827Z,25.67
2023-04-23T10:09:46.989Z,24.99
2023-04-23T10:14:49.520Z,26.72
2023-04-23T10:17:18.064Z,26.86
2023-04-23T10:19:46.803Z,26.42
2023-04-23T10:22:19.949Z,25.90
2023-04-23T10:24:52.489Z,26.14
2023-04-23T10:29:54.004Z,25.38
2023-04-23T10:32:22.115Z,25.60
2023-04-23T10:34:51.006Z,25.93
2023-04-23T10:37:19.763Z,25.99
2023-04-23T10:39:50.433Z,26.42
2023-04-23T10:42:18.338Z,26.97
2023-04-23T10:44:58.064Z,26.75
2023-04-23T10:47:31.245Z,27.49
2023-04-23T10:50:18.147Z,27.37
2023-04-23T10:52:49.188Z,26.85
2023-04-23T10:55:18.813Z,27.00
2023-04-23T10:58:05.955Z,26.12
2023-04-23T11:00:46.302Z,25.88
2023-04-23T11:03:31.626Z,25.14
2023-04-23T11:06:03.699Z,25.21
2023-04-23T11:08:32.782Z,26.00
2023-04-23T11:11:01.465Z,27.61
2023-04-23T11:13:29.848Z,27.74
2023-04-23T11:16:16.719Z,28.57
2023-04-23T11:18:57.465Z,26.84
2023-04-23T11:21:43.958Z,25.77
2023-04-23T11:24:11.747Z,27.30
2023-04-23T11:26:43.117Z,27.78
2023-04-23T11:29:14.588Z,26.76
2023-04-23T11:31:58.473Z,25.89
2023-04-23T11:34:30.261Z,25.70
2023-04-23T11:36:59.699Z,26.60
2023-04-23T11:39:28.618Z,27.06
2023-04-23T11:41:58.270Z,28.36
2023-04-23T11:44:26.350Z,27.78
2023-04-23T11:46:55.872Z,27.81
2023-04-23T11:49:26.001Z,28.64
2023-04-23T11:51:54.264Z,29.39
2023-04-23T11:54:27.708Z,28.90
2023-04-23T11:56:56.802Z,26.90
2023-04-23T11:59:24.740Z,26.35
2023-04-23T12:01:57.635Z,26.87
2023-04-23T12:04:26.924Z,26.92
2023-04-23T12:06:56.443Z,28.70
2023-04-23T12:09:25.617Z,29.31
2023-04-23T12:11:54.167Z,29.91
2023-04-23T12:14:30.458Z,29.62
2023-04-23T12:17:10.322Z,29.07
2023-04-23T12:19:40.813Z,28.14
2023-04-23T12:22:09.438Z,27.74
2023-04-23T12:24:47.774Z,27.78
2023-04-23T12:27:16.991Z,27.35
2023-04-23T12:29:47.651Z,27.71
2023-04-23T12:32:16.226Z,26.56
2023-04-23T12:34:53.938Z,26.92
2023-04-23T12:37:27.141Z,28.33
2023-04-23T12:39:57.029Z,28.71
2023-04-23T12:42:26.086Z,29.42
2023-04-23T12:44:56.122Z,28.38
2023-04-23T12:47:24.515Z,27.97
2023-04-23T12:49:53.942Z,28.49
2023-04-23T12:52:22.577Z,28.26
2023-04-23T12:54:56.709Z,28.73
2023-04-23T12:57:25.477Z,29.61
2023-04-23T12:59:55.221Z,30.53
2023-04-23T13:02:24.557Z,30.01
2023-04-23T13:04:54.710Z,29.08
2023-04-23T13:07:22.903Z,27.95
2023-04-23T13:09:51.084Z,28.34
2023-04-23T13:12:19.187Z,29.02
2023-04-23T13:14:47.018Z,29.05
2023-04-23T13:17:15.176Z,28.31
2023-04-23T13:19:43.197Z,28.13
2023-04-23T13:22:11.601Z,27.61
2023-04-23T13:24:39.467Z,26.58
2023-04-23T13:27:08.078Z,25.91
2023-04-23T13:29:35.898Z,26.71
2023-04-23T13:32:04.213Z,27.16
2023-04-23T13:34:32.235Z,27.73
2023-04-23T13:37:00.741Z,27.25
2023-04-23T13:39:28.648Z,27.20
2023-04-23T13:42:09.053Z,27.05
2023-04-23T13:44:37.973Z,26.54
2023-04-23T13:47:06.131Z,27.68
2023-04-23T13:49:34.146Z,28.23
2023-04-23T13:52:07.117Z,27.56
2023-04-23T13:54:36.121Z,27.43
2023-04-23T13:57:04.468Z,27.29
2023-04-23T13:59:32.371Z,27.19
2023-04-23T14:02:00.502Z,27.76
2023-04-23T14:04:28.535Z,28.01
2023-04-23T14:06:56.723Z,27.94
2023-04-23T14:09:24.597Z,28.00
2023-04-23T14:11:52.897Z,27.91
2023-04-23T14:14:20.891Z,27.72
2023-04-23T14:16:49.156Z,28.03
2023-04-23T14:19:17.530Z,27.57
2023-04-23T14:21:45.867Z,27.51
2023-04-23T14:24:19.905Z,27.24
2023-04-23T14:26:50.154Z,27.34
2023-04-23T14:29:20.374Z,27.46
2023-04-23T14:31:48.537Z,27.22
2023-04-23T14:34:16.629Z,27.29
2023-04-23T14:36:44.914Z,28.12
2023-04-23T14:39:13.257Z,28.93
2023-04-23T14:41:41.267Z,29.14
2023-04-23T14:44:09.582Z,28.61
2023-04-23T14:46:37.729Z,28.79
2023-04-23T14:49:06.774Z,29.02
2023-04-23T14:51:34.780Z,29.22
2023-04-23T14:54:03.617Z,29.04
2023-04-23T14:56:31.987Z,28.98
2023-04-23T14:59:00.145Z,29.16
2023-04-23T15:01:28.214Z,29.22
2023-04-23T15:03:56.692Z,29.86
2023-04-23T15:06:24.707Z,29.67
2023-04-23T15:08:52.965Z,29.64
2023-04-23T15:11:20.954Z,28.91
2023-04-23T15:14:04.210Z,28.61
2023-04-23T15:19:10.961Z,27.52
2023-04-23T15:21:39.297Z,27.26
2023-04-23T15:24:08.193Z,27.05
2023-04-23T15:26:36.681Z,28.32
2023-04-23T15:29:05.423Z,28.40
2023-04-23T15:31:33.497Z,29.10
2023-04-23T15:34:02.060Z,28.74
2023-04-23T15:36:29.967Z,28.76
2023-04-23T15:38:58.140Z,29.04
2023-04-23T15:41:27.253Z,28.89
2023-04-23T15:43:55.896Z,28.83
2023-04-23T15:46:23.616Z,28.28
2023-04-23T15:48:51.953Z,28.29
2023-04-23T15:51:19.621Z,27.93
2023-04-23T15:53:47.687Z,27.82
2023-04-23T15:56:15.378Z,27.69
2023-04-23T15:58:43.439Z,27.64
2023-04-23T16:01:11.547Z,27.63
2023-04-23T16:03:39.984Z,27.72
2023-04-23T16:06:08.256Z,27.80
2023-04-23T16:08:37.716Z,27.83
2023-04-23T16:11:05.622Z,27.64
2023-04-23T16:13:33.655Z,27.49
2023-04-23T16:16:01.372Z,27.66
2023-04-23T16:18:29.444Z,27.41
2023-04-23T16:20:57.271Z,27.29
2023-04-23T16:23:25.320Z,27.20
2023-04-23T16:25:52.962Z,27.09
2023-04-23T16:28:21.101Z,27.19
2023-04-23T16:30:48.960Z,27.11
2023-04-23T16:33:17.042Z,27.28
2023-04-23T16:35:44.761Z,26.87
2023-04-23T16:38:13.214Z,26.92
2023-04-23T16:40:40.954Z,26.89
2023-04-23T16:43:10.557Z,26.61
2023-04-23T16:45:39.830Z,26.74
2023-04-23T16:48:08.948Z,26.57
2023-04-23T16:50:36.669Z,26.66
2023-04-23T16:53:05.146Z,26.58
2023-04-23T16:55:32.945Z,26.56
2023-04-23T16:58:00.952Z,26.60
2023-04-23T17:00:28.667Z,26.47
2023-04-23T17:02:56.862Z,26.56
2023-04-23T17:05:24.902Z,26.49
2023-04-23T17:07:53.555Z,26.31
2023-04-23T17:10:21.332Z,26.41
2023-04-23T17:12:54.046Z,26.45
2023-04-23T17:15:23.041Z,26.40
2023-04-23T17:17:51.608Z,26.13
2023-04-23T17:20:19.485Z,26.23
2023-04-23T17:22:47.584Z,26.22
2023-04-23T17:25:15.287Z,26.07
2023-04-23T17:27:43.412Z,25.87
2023-04-23T17:30:11.489Z,25.79
2023-04-23T17:32:39.549Z,25.82
2023-04-23T17:35:10.609Z,25.89
2023-04-23T17:37:39.436Z,25.80
2023-04-23T17:40:07.636Z,25.70
2023-04-23T17:42:35.741Z,25.45
2023-04-23T17:45:03.628Z,25.42
2023-04-23T17:47:32.009Z,25.22
2023-04-23T17:49:59.727Z,25.00
2023-04-23T17:52:27.832Z,24.96
2023-04-23T17:54:56.978Z,24.76
2023-04-23T17:57:25.127Z,24.85
2023-04-23T17:59:52.926Z,25.02
2023-04-23T18:02:21.160Z,24.86
2023-04-23T18:04:49.127Z,25.10
2023-04-23T18:07:17.169Z,25.13
2023-04-23T18:09:45.108Z,24.98
2023-04-23T18:12:13.416Z,24.87
2023-04-23T18:14:41.177Z,24.69
2023-04-23T18:17:09.567Z,24.70
2023-04-23T18:19:37.554Z,24.47
2023-04-23T18:22:05.586Z,24.31
2023-04-23T18:24:33.298Z,24.29
2023-04-23T18:27:02.573Z,24.26
2023-04-23T18:29:30.654Z,24.43
2023-04-23T18:31:58.888Z,24.26
2023-04-23T18:34:30.256Z,24.22
2023-04-23T18:37:02.098Z,24.18
2023-04-23T18:39:32.307Z,24.04
2023-04-23T18:42:01.044Z,23.83
2023-04-23T18:44:29.037Z,23.93
2023-04-23T18:46:57.795Z,23.68
2023-04-23T18:49:39.806Z,23.72
2023-04-23T18:52:08.212Z,23.60
2023-04-23T18:54:36.061Z,23.36
2023-04-23T18:57:04.288Z,23.46
2023-04-23T18:59:37.513Z,23.31
2023-04-23T19:02:06.262Z,23.42
2023-04-23T19:04:34.898Z,23.24
2023-04-23T19:07:03.709Z,23.05
2023-04-23T19:09:31.446Z,23.36
2023-04-23T19:11:59.588Z,23.12
2023-04-23T19:14:27.477Z,23.12
2023-04-23T19:16:56.079Z,23.06
2023-04-23T19:19:24.647Z,23.12
2023-04-23T19:21:52.817Z,23.17
2023-04-23T19:24:20.587Z,23.05
2023-04-23T19:26:48.782Z,22.97
2023-04-23T19:29:16.657Z,22.95
2023-04-23T19:31:44.970Z,22.77
2023-04-23T19:34:13.601Z,22.63
2023-04-23T19:36:41.789Z,22.66
2023-04-23T19:39:10.974Z,22.50
2023-04-23T19:41:39.052Z,22.62
2023-04-23T19:44:07.131Z,22.76
2023-04-23T19:46:35.216Z,22.89
2023-04-23T19:49:03.002Z,22.96
2023-04-23T19:51:33.102Z,22.86
2023-04-23T19:54:00.884Z,22.84
2023-04-23T19:56:29.245Z,22.78
2023-04-23T19:58:57.026Z,22.76
2023-04-23T20:01:28.318Z,22.91
2023-04-23T20:03:56.163Z,22.88
2023-04-23T20:06:24.182Z,22.83
2023-04-23T20:09:10.106Z,22.95
2023-04-23T20:11:38.738Z,22.96
2023-04-23T20:14:06.755Z,22.89
2023-04-23T20:16:34.844Z,22.77
2023-04-23T20:19:05.212Z,22.64
2023-04-23T20:21:33.193Z,22.69
2023-04-23T20:24:00.979Z,22.78
2023-04-23T20:26:29.026Z,22.71
2023-04-23T20:28:56.684Z,22.52
2023-04-23T20:31:24.989Z,22.80
2023-04-23T20:33:52.809Z,22.71
2023-04-23T20:36:20.966Z,22.84
2023-04-23T20:38:48.793Z,22.82
2023-04-23T20:41:16.882Z,22.70
2023-04-23T20:43:44.612Z,22.58
2023-04-23T20:46:13.031Z,22.56
2023-04-23T20:48:43.492Z,22.38
2023-04-23T20:51:11.523Z,22.27
2023-04-23T20:53:39.193Z,22.32
2023-04-23T20:56:07.168Z,22.66
2023-04-23T20:58:34.867Z,22.61
2023-04-23T21:01:04.958Z,22.43
2023-04-23T21:03:33.165Z,22.52
2023-04-23T21:06:01.555Z,22.37
2023-04-23T21:08:29.236Z,22.47
2023-04-23T21:10:57.837Z,22.47
2023-04-23T21:13:26.139Z,22.55
2023-04-23T21:15:54.732Z,22.35
2023-04-23T21:18:22.489Z,22.52
2023-04-23T21:20:50.898Z,22.51
2023-04-23T21:23:18.517Z,22.24
2023-04-23T21:25:46.526Z,22.04
2023-04-23T21:28:15.962Z,21.58
2023-04-23T21:30:52.015Z,21.06
2023-04-23T21:33:20.792Z,21.72
2023-04-23T21:35:50.023Z,21.77
2023-04-23T21:38:18.647Z,22.39
2023-04-23T21:40:47.057Z,22.44
2023-04-23T21:43:14.739Z,21.85
2023-04-23T21:45:42.984Z,21.44
2023-04-23T21:48:10.873Z,21.60
2023-04-23T21:50:38.893Z,21.32
2023-04-23T21:53:07.427Z,21.74
2023-04-23T21:55:35.893Z,21.61
2023-04-23T21:58:16.719Z,21.49
2023-04-23T22:00:46.180Z,21.02
2023-04-23T22:03:16.174Z,20.88
2023-04-23T22:05:56.364Z,20.98
2023-04-23T22:08:25.178Z,20.78
2023-04-23T22:10:53.090Z,21.51
2023-04-23T22:13:21.523Z,21.53
2023-04-23T22:15:49.744Z,21.73
2023-04-23T22:18:17.346Z,21.83
2023-04-23T22:20:48.932Z,22.11
2023-04-23T22:23:16.932Z,22.01
2023-04-23T22:25:45.085Z,21.78
2023-04-23T22:28:12.725Z,21.73
2023-04-23T22:30:40.884Z,21.74
2023-04-23T22:33:08.586Z,21.93
2023-04-23T22:35:36.900Z,21.88
2023-04-23T22:38:04.785Z,21.96
2023-04-23T22:40:33.321Z,21.79
2023-04-23T22:43:01.558Z,21.63
2023-04-23T22:45:29.505Z,21.39
2023-04-23T22:47:57.342Z,21.67
2023-04-23T22:50:27.041Z,21.80
2023-04-23T22:52:54.694Z,21.85
2023-04-23T22:55:23.009Z,21.66
2023-04-23T22:57:50.792Z,21.72
2023-04-23T23:00:19.110Z,21.53
2023-04-23T23:02:46.824Z,21.71
2023-04-23T23:05:14.956Z,21.90
2023-04-23T23:07:42.605Z,21.70
2023-04-23T23:10:11.422Z,21.73
2023-04-23T23:12:39.438Z,21.66
2023-04-23T23:15:07.894Z,21.65
2023-04-23T23:17:35.614Z,21.65
2023-04-23T23:20:06.808Z,21.71
2023-04-23T23:22:37.791Z,21.73
2023-04-23T23:25:07.813Z,21.85
2023-04-23T23:27:35.865Z,21.92
2023-04-23T23:30:06.451Z,21.86
2023-04-23T23:32:34.292Z,21.68
2023-04-23T23:35:02.669Z,21.60
2023-04-23T23:37:30.797Z,21.32
2023-04-23T23:39:58.746Z,20.57
2023-04-23T23:42:26.353Z,20.39
2023-04-23T23:44:54.366Z,20.82
2023-04-23T23:47:22.092Z,20.76
2023-04-23T23:49:50.054Z,21.06
2023-04-23T23:52:17.586Z,21.23
2023-04-23T23:54:45.565Z,21.45
2023-04-23T23:57:13.243Z,21.53
2023-04-23T23:59:41.522Z,21.38
